createdAt,value
2022-09-23T00:01:33.762Z,4.32
2022-09-23T00:04:36.575Z,4.60
2022-09-23T00:07:39.618Z,4.43
2022-09-23T00:10:42.548Z,4.40
2022-09-23T00:13:46.618Z,3.30
2022-09-23T00:16:50.772Z,3.83
2022-09-23T00:19:54.229Z,6.00
2022-09-23T00:22:57.793Z,3.88
2022-09-23T00:26:01.820Z,5.95
2022-09-23T00:29:04.487Z,5.13
2022-09-23T00:32:08.497Z,4.57
2022-09-23T00:35:11.017Z,6.90
2022-09-23T00:38:14.337Z,3.93
2022-09-23T00:41:17.240Z,3.55
2022-09-23T00:44:43.108Z,3.45
2022-09-23T00:47:49.233Z,4.67
2022-09-23T00:50:54.406Z,3.93
2022-09-23T00:53:57.333Z,4.53
2022-09-23T00:57:00.849Z,3.30
2022-09-23T01:00:03.848Z,5.32
2022-09-23T01:03:09.395Z,5.60
2022-09-23T01:06:13.103Z,3.97
2022-09-23T01:12:28.087Z,3.30
2022-09-23T01:15:38.261Z,5.53
2022-09-23T01:18:46.580Z,3.57
2022-09-23T01:21:54.489Z,4.13
2022-09-23T01:25:10.916Z,7.37
2022-09-23T01:28:27.558Z,6.23
2022-09-23T01:31:35.922Z,5.37
2022-09-23T01:34:46.081Z,3.87
2022-09-23T01:37:52.205Z,5.20
2022-09-23T01:41:00.686Z,5.97
2022-09-23T01:44:05.819Z,3.70
2022-09-23T01:47:14.196Z,4.27
2022-09-23T01:50:37.071Z,5.27
2022-09-23T01:53:44.979Z,6.80
2022-09-23T01:56:52.527Z,5.90
2022-09-23T01:59:58.349Z,3.30
2022-09-23T02:03:06.040Z,4.23
2022-09-23T02:06:11.691Z,5.40
2022-09-23T02:09:16.338Z,3.83
2022-09-23T02:12:20.336Z,5.27
2022-09-23T02:15:24.966Z,5.17
2022-09-23T02:18:31.734Z,5.30
2022-09-23T02:21:36.178Z,6.13
2022-09-23T02:24:39.785Z,4.20
2022-09-23T02:27:47.561Z,6.15
2022-09-23T02:30:52.778Z,4.43
2022-09-23T02:33:58.795Z,5.30
2022-09-23T02:37:09.418Z,4.63
2022-09-23T02:40:17.425Z,5.50
2022-09-23T02:43:23.505Z,5.97
2022-09-23T02:46:26.339Z,4.83
2022-09-23T02:49:32.627Z,7.47
2022-09-23T02:52:38.182Z,6.03
2022-09-23T02:55:42.250Z,4.50
2022-09-23T02:58:46.919Z,4.80
2022-09-23T03:02:14.374Z,5.87
2022-09-23T03:05:23.848Z,5.57
2022-09-23T03:08:37.349Z,4.93
2022-09-23T03:11:42.245Z,7.95
2022-09-23T03:14:50.799Z,6.97
2022-09-23T03:17:57.697Z,8.27
2022-09-23T03:21:03.708Z,10.70
2022-09-23T03:24:08.620Z,4.00
2022-09-23T03:27:13.993Z,6.53
2022-09-23T03:30:16.691Z,4.37
2022-09-23T03:33:24.715Z,5.60
2022-09-23T03:36:54.029Z,11.17
2022-09-23T03:40:02.991Z,5.43
2022-09-23T03:43:05.954Z,5.53
2022-09-23T03:46:08.760Z,5.90
2022-09-23T03:49:15.871Z,6.53
2022-09-23T03:52:22.591Z,4.93
2022-09-23T03:55:25.246Z,5.20
2022-09-23T03:58:27.903Z,6.67
2022-09-23T04:01:30.753Z,4.90
2022-09-23T04:04:34.284Z,7.07
2022-09-23T04:07:38.607Z,9.85
2022-09-23T04:10:41.936Z,6.70
2022-09-23T04:13:44.561Z,6.47
2022-09-23T04:16:47.305Z,5.93
2022-09-23T04:19:49.886Z,7.13
2022-09-23T04:22:53.896Z,6.67
2022-09-23T04:25:56.522Z,10.67
2022-09-23T04:28:59.490Z,7.27
2022-09-23T04:32:02.524Z,6.78
2022-09-23T04:35:06.141Z,6.20
2022-09-23T04:38:11.446Z,14.40
2022-09-23T04:41:14.329Z,5.77
2022-09-23T04:44:17.137Z,9.30
2022-09-23T04:47:19.672Z,6.87
2022-09-23T04:50:22.574Z,7.60
2022-09-23T04:53:26.624Z,6.15
2022-09-23T04:56:32.698Z,8.53
2022-09-23T04:59:35.306Z,7.03
2022-09-23T05:02:43.890Z,7.73
2022-09-23T05:05:46.429Z,8.43
2022-09-23T05:08:52.194Z,9.23
2022-09-23T05:11:55.235Z,6.10
2022-09-23T05:14:58.065Z,5.20
2022-09-23T05:18:02.534Z,6.03
2022-09-23T05:21:05.673Z,10.60
2022-09-23T05:24:09.702Z,8.73
2022-09-23T05:27:12.806Z,5.70
2022-09-23T05:30:15.682Z,7.68
2022-09-23T05:33:18.377Z,7.70
2022-09-23T05:36:21.669Z,10.03
2022-09-23T05:39:25.840Z,4.82
2022-09-23T05:42:28.608Z,9.13
2022-09-23T05:45:32.105Z,5.77
2022-09-23T05:48:36.102Z,5.82
2022-09-23T05:51:38.960Z,6.53
2022-09-23T05:54:43.491Z,5.05
2022-09-23T05:57:46.023Z,6.63
2022-09-23T06:00:49.898Z,7.63
2022-09-23T06:03:52.894Z,6.70
2022-09-23T06:06:55.532Z,7.78
2022-09-23T06:09:59.826Z,5.70
2022-09-23T06:13:02.842Z,6.33
2022-09-23T06:16:07.934Z,7.88
2022-09-23T06:19:10.832Z,6.10
2022-09-23T06:22:16.994Z,6.95
2022-09-23T06:25:23.076Z,10.63
2022-09-23T06:28:25.626Z,7.90
2022-09-23T06:31:28.620Z,9.17
2022-09-23T06:34:43.474Z,9.68
2022-09-23T06:37:49.462Z,9.23
2022-09-23T06:40:54.593Z,10.07
2022-09-23T06:43:57.318Z,9.23
2022-09-23T06:47:00.025Z,9.97
2022-09-23T06:50:02.853Z,9.30
2022-09-23T06:53:05.652Z,7.17
2022-09-23T06:56:11.177Z,8.60
2022-09-23T06:59:17.060Z,8.43
2022-09-23T07:02:19.766Z,11.63
2022-09-23T07:05:22.690Z,8.60
2022-09-23T07:08:27.149Z,5.43
2022-09-23T07:11:31.064Z,10.03
2022-09-23T07:14:34.222Z,7.67
2022-09-23T07:17:37.466Z,9.73
2022-09-23T07:20:40.208Z,10.18
2022-09-23T07:23:43.170Z,7.47
2022-09-23T07:26:47.249Z,5.28
2022-09-23T07:29:50.661Z,10.03
2022-09-23T07:32:53.619Z,8.43
2022-09-23T07:35:56.687Z,10.88
2022-09-23T07:39:00.666Z,8.85
2022-09-23T07:42:05.759Z,10.07
2022-09-23T07:45:10.025Z,10.30
2022-09-23T07:48:12.540Z,12.50
2022-09-23T07:51:18.560Z,10.10
2022-09-23T07:54:21.527Z,9.50
2022-09-23T07:57:25.670Z,7.10
2022-09-23T08:00:28.373Z,11.53
2022-09-23T08:03:31.153Z,5.63
2022-09-23T08:06:34.192Z,4.00
2022-09-23T08:09:41.486Z,6.28
2022-09-23T08:12:45.899Z,6.93
2022-09-23T08:15:55.185Z,9.07
2022-09-23T08:18:58.285Z,9.00
2022-09-23T08:22:01.148Z,6.20
2022-09-23T08:25:05.296Z,7.00
2022-09-23T08:28:12.795Z,4.67
2022-09-23T08:31:15.585Z,7.00
2022-09-23T08:34:19.495Z,5.55
2022-09-23T08:37:22.548Z,5.03
2022-09-23T08:40:25.628Z,3.63
2022-09-23T08:43:31.360Z,3.97
2022-09-23T08:46:37.688Z,3.97
2022-09-23T08:49:46.091Z,2.83
2022-09-23T08:52:52.042Z,1.60
2022-09-23T08:55:56.268Z,3.20
2022-09-23T08:59:07.881Z,2.97
2022-09-23T09:02:16.610Z,4.00
2022-09-23T09:05:25.599Z,8.17
2022-09-23T09:08:32.045Z,3.03
2022-09-23T09:11:37.246Z,4.83
2022-09-23T09:14:48.976Z,6.47
2022-09-23T09:17:59.235Z,6.47
2022-09-23T09:21:09.960Z,8.30
2022-09-23T09:24:18.505Z,4.87
2022-09-23T09:27:21.291Z,6.17
2022-09-23T09:30:25.639Z,5.53
2022-09-23T09:33:32.491Z,11.87
2022-09-23T09:36:39.516Z,9.03
2022-09-23T09:39:42.328Z,4.90
2022-09-23T09:42:48.181Z,11.18
2022-09-23T09:46:02.151Z,6.17
2022-09-23T09:49:10.538Z,7.37
2022-09-23T09:52:23.488Z,3.40
2022-09-23T09:55:28.485Z,6.32
2022-09-23T09:58:44.114Z,8.73
2022-09-23T10:01:48.282Z,6.20
2022-09-23T10:04:57.258Z,10.00
2022-09-23T10:08:17.627Z,9.33
2022-09-23T10:11:20.318Z,10.23
2022-09-23T10:14:23.692Z,6.45
2022-09-23T10:20:36.411Z,6.37
2022-09-23T10:23:41.600Z,6.77
2022-09-23T10:26:51.679Z,8.50
2022-09-23T10:29:56.878Z,6.90
2022-09-23T10:33:01.252Z,6.70
2022-09-23T10:36:03.893Z,5.50
2022-09-23T10:39:23.908Z,10.00
2022-09-23T10:42:49.762Z,10.73
2022-09-23T10:46:11.594Z,7.27
2022-09-23T10:49:34.907Z,7.30
2022-09-23T10:52:46.949Z,5.20
2022-09-23T10:56:05.651Z,8.07
2022-09-23T10:59:27.215Z,4.47
2022-09-23T11:02:47.682Z,4.40
2022-09-23T11:05:58.914Z,6.20
2022-09-23T11:09:15.601Z,6.80
2022-09-23T11:12:26.811Z,5.47
2022-09-23T11:15:39.152Z,5.93
2022-09-23T11:19:03.268Z,4.30
2022-09-23T11:22:20.222Z,6.63
2022-09-23T11:25:37.000Z,4.60
2022-09-23T11:29:04.538Z,5.40
2022-09-23T11:32:22.759Z,9.60
2022-09-23T11:35:27.491Z,3.93
2022-09-23T11:38:36.998Z,3.97
2022-09-23T11:41:40.999Z,6.00
2022-09-23T11:44:47.085Z,3.60
2022-09-23T11:47:52.544Z,4.13
2022-09-23T11:50:58.981Z,1.97
2022-09-23T11:54:05.394Z,5.00
2022-09-23T11:57:12.444Z,3.70
2022-09-23T12:00:19.047Z,2.77
2022-09-23T12:03:39.171Z,4.43
2022-09-23T12:09:58.668Z,2.42
2022-09-23T12:13:06.585Z,3.20
2022-09-23T12:16:30.801Z,3.10
2022-09-23T12:19:48.645Z,3.67
2022-09-23T12:22:59.850Z,3.40
2022-09-23T12:26:07.500Z,5.47
2022-09-23T12:29:13.374Z,3.70
2022-09-23T12:32:18.590Z,3.20
2022-09-23T12:35:23.635Z,5.37
2022-09-23T12:38:27.567Z,6.93
2022-09-23T12:41:35.348Z,4.00
2022-09-23T12:44:42.043Z,4.27
2022-09-23T12:47:44.639Z,9.20
2022-09-23T12:50:59.617Z,4.57
2022-09-23T12:54:24.327Z,3.67
2022-09-23T12:57:43.648Z,6.17
2022-09-23T13:01:07.415Z,4.93
2022-09-23T13:04:53.109Z,3.25
2022-09-23T13:08:00.261Z,7.90
2022-09-23T13:11:04.383Z,4.20
2022-09-23T13:14:08.900Z,17.85
2022-09-23T13:17:24.281Z,5.13
2022-09-23T13:20:36.530Z,4.38
2022-09-23T13:23:39.192Z,4.40
2022-09-23T13:26:46.375Z,8.45
2022-09-23T13:29:53.174Z,8.05
2022-09-23T13:33:04.189Z,3.60
2022-09-23T13:36:13.041Z,7.10
2022-09-23T13:39:16.415Z,5.38
2022-09-23T13:42:25.520Z,7.85
2022-09-23T13:45:32.085Z,5.40
2022-09-23T13:48:34.835Z,4.85
2022-09-23T13:51:37.689Z,4.88
2022-09-23T13:54:48.784Z,5.57
2022-09-23T13:57:58.924Z,4.07
2022-09-23T14:01:03.466Z,6.53
2022-09-23T14:04:06.537Z,4.70
2022-09-23T14:07:10.969Z,6.97
2022-09-23T14:10:18.872Z,8.65
2022-09-23T14:13:25.892Z,6.43
2022-09-23T14:16:32.767Z,3.35
2022-09-23T14:19:36.599Z,3.25
2022-09-23T14:22:39.142Z,6.63
2022-09-23T14:25:41.940Z,4.10
2022-09-23T14:28:44.973Z,4.93
2022-09-23T14:31:56.932Z,7.47
2022-09-23T14:35:09.419Z,5.77
2022-09-23T14:38:30.409Z,3.85
2022-09-23T14:41:38.664Z,3.15
2022-09-23T14:44:41.320Z,4.27
2022-09-23T14:47:48.498Z,4.35
2022-09-23T14:50:53.313Z,10.00
2022-09-23T14:53:55.947Z,4.73
2022-09-23T14:56:58.706Z,8.85
2022-09-23T15:00:03.964Z,6.82
2022-09-23T15:03:17.673Z,5.85
2022-09-23T15:06:20.778Z,7.43
2022-09-23T15:09:26.046Z,3.33
2022-09-23T15:12:28.763Z,5.22
2022-09-23T15:15:31.620Z,2.85
2022-09-23T15:21:41.266Z,9.45
2022-09-23T15:24:45.906Z,4.35
2022-09-23T15:28:03.444Z,3.03
2022-09-23T15:31:09.173Z,7.27
2022-09-23T15:34:13.270Z,5.90
2022-09-23T15:37:15.814Z,5.57
2022-09-23T15:40:22.168Z,3.20
2022-09-23T15:43:26.652Z,6.37
2022-09-23T15:46:33.645Z,6.50
2022-09-23T15:49:39.550Z,6.50
2022-09-23T15:52:45.125Z,5.90
2022-09-23T15:55:50.266Z,6.00
2022-09-23T15:58:52.936Z,3.43
2022-09-23T16:01:56.789Z,4.78
2022-09-23T16:05:02.923Z,4.17
2022-09-23T16:08:08.904Z,4.87
2022-09-23T16:11:16.309Z,8.33
2022-09-23T16:14:20.369Z,4.90
2022-09-23T16:17:23.176Z,4.00
2022-09-23T16:20:29.076Z,6.75
2022-09-23T16:23:38.620Z,4.63
2022-09-23T16:26:43.170Z,4.83
2022-09-23T16:29:45.899Z,4.90
2022-09-23T16:32:48.551Z,10.50
2022-09-23T16:35:52.756Z,9.63
2022-09-23T16:38:56.317Z,5.07
2022-09-23T16:41:59.207Z,5.43
2022-09-23T16:45:02.069Z,8.20
2022-09-23T16:48:06.419Z,6.15
2022-09-23T16:51:15.369Z,6.57
2022-09-23T16:54:19.278Z,6.47
2022-09-23T16:57:22.010Z,5.73
2022-09-23T17:00:42.416Z,6.13
2022-09-23T17:03:45.219Z,6.73
2022-09-23T17:06:50.911Z,8.55
2022-09-23T17:09:53.734Z,6.63
2022-09-23T17:12:56.376Z,14.63
2022-09-23T17:15:59.090Z,12.82
2022-09-23T17:19:07.307Z,10.27
2022-09-23T17:22:11.434Z,7.90
2022-09-23T17:25:14.247Z,14.00
2022-09-23T17:28:16.762Z,13.85
2022-09-23T17:31:19.793Z,15.02
2022-09-23T17:34:23.975Z,18.33
2022-09-23T17:37:28.103Z,9.53
2022-09-23T17:40:30.874Z,8.97
2022-09-23T17:43:33.622Z,8.48
2022-09-23T17:46:36.283Z,11.00
2022-09-23T17:49:38.842Z,7.70
2022-09-23T17:52:42.862Z,8.40
2022-09-23T17:55:45.448Z,8.97
2022-09-23T17:58:49.403Z,8.77
2022-09-23T18:01:51.976Z,10.97
2022-09-23T18:04:54.646Z,13.20
2022-09-23T18:08:00.194Z,15.88
2022-09-23T18:11:15.668Z,9.17
2022-09-23T18:14:19.907Z,12.35
2022-09-23T18:17:22.530Z,11.40
2022-09-23T18:20:25.197Z,14.43
2022-09-23T18:23:29.282Z,10.45
2022-09-23T18:26:31.944Z,18.73
2022-09-23T18:29:35.237Z,13.13
2022-09-23T18:32:37.815Z,12.93
2022-09-23T18:35:40.406Z,11.25
2022-09-23T18:38:44.387Z,12.00
2022-09-23T18:41:49.479Z,20.93
2022-09-23T18:44:54.390Z,27.37
2022-09-23T18:48:10.981Z,26.70
2022-09-23T18:51:15.035Z,22.00
2022-09-23T18:54:19.856Z,20.10
2022-09-23T18:57:22.561Z,19.27
2022-09-23T19:00:25.217Z,22.40
2022-09-23T19:03:27.985Z,21.67
2022-09-23T19:06:32.407Z,29.80
2022-09-23T19:09:36.437Z,18.40
2022-09-23T19:12:39.265Z,21.00
2022-09-23T19:15:41.917Z,20.13
2022-09-23T19:18:46.476Z,19.17
2022-09-23T19:21:49.085Z,21.80
2022-09-23T19:24:53.116Z,14.05
2022-09-23T19:27:55.777Z,16.03
2022-09-23T19:30:59.029Z,17.92
2022-09-23T19:34:02.881Z,23.42
2022-09-23T19:37:05.729Z,24.17
2022-09-23T19:40:11.015Z,22.02
2022-09-23T19:43:14.354Z,16.10
2022-09-23T19:46:17.102Z,15.18
2022-09-23T19:49:19.727Z,14.57
2022-09-23T19:52:22.801Z,14.17
2022-09-23T19:55:28.448Z,11.80
2022-09-23T19:58:31.060Z,12.23
2022-09-23T20:01:34.263Z,7.00
2022-09-23T20:04:37.535Z,7.00
2022-09-23T20:07:42.221Z,7.70
2022-09-23T20:10:46.840Z,7.63
2022-09-23T20:13:53.688Z,7.47
2022-09-23T20:16:56.320Z,7.43
2022-09-23T20:19:59.311Z,12.90
2022-09-23T20:23:02.001Z,8.88
2022-09-23T20:26:24.629Z,7.90
2022-09-23T20:29:27.208Z,5.27
2022-09-23T20:32:29.749Z,10.87
2022-09-23T20:35:33.151Z,10.03
2022-09-23T20:38:36.061Z,6.00
2022-09-23T20:41:40.406Z,8.30
2022-09-23T20:44:44.878Z,10.60
2022-09-23T20:47:47.500Z,8.13
2022-09-23T20:50:52.932Z,8.10
2022-09-23T20:53:55.572Z,5.80
2022-09-23T20:57:00.447Z,7.82
2022-09-23T21:00:03.161Z,8.97
2022-09-23T21:03:06.369Z,12.13
2022-09-23T21:06:10.096Z,7.68
2022-09-23T21:09:12.722Z,10.27
2022-09-23T21:12:17.097Z,9.27
2022-09-23T21:15:19.824Z,12.40
2022-09-23T21:18:24.100Z,8.63
2022-09-23T21:21:27.215Z,9.40
2022-09-23T21:27:54.419Z,9.10
2022-09-23T21:30:59.111Z,6.67
2022-09-23T21:34:03.829Z,12.13
2022-09-23T21:37:06.993Z,10.60
2022-09-23T21:40:28.155Z,10.02
2022-09-23T21:43:34.886Z,11.53
2022-09-23T21:46:37.875Z,12.50
2022-09-23T21:49:41.557Z,10.68
2022-09-23T21:55:48.855Z,6.78
2022-09-23T21:58:54.460Z,10.13
2022-09-23T22:01:57.226Z,8.83
2022-09-23T22:04:59.829Z,11.43
2022-09-23T22:08:02.889Z,9.47
2022-09-23T22:11:07.580Z,8.35
2022-09-23T22:14:13.539Z,10.17
2022-09-23T22:17:16.444Z,10.30
2022-09-23T22:20:19.131Z,9.90
2022-09-23T22:23:21.854Z,7.10
2022-09-23T22:26:25.270Z,9.07
2022-09-23T22:29:47.028Z,8.57
2022-09-23T22:32:54.890Z,6.30
2022-09-23T22:36:02.655Z,6.37
2022-09-23T22:39:05.652Z,7.97
2022-09-23T22:42:08.564Z,8.35
2022-09-23T22:45:13.289Z,6.28
2022-09-23T22:48:16.013Z,6.73
2022-09-23T22:51:18.580Z,7.40
2022-09-23T22:54:22.240Z,9.50
2022-09-23T23:00:29.074Z,9.57
2022-09-23T23:03:34.354Z,7.30
2022-09-23T23:06:37.463Z,6.70
2022-09-23T23:09:40.088Z,6.40
2022-09-23T23:12:42.824Z,6.10
2022-09-23T23:15:46.768Z,11.65
2022-09-23T23:18:49.439Z,7.27
2022-09-23T23:21:52.569Z,9.68
2022-09-23T23:24:55.607Z,7.07
2022-09-23T23:27:58.384Z,5.57
2022-09-23T23:31:05.290Z,9.80
2022-09-23T23:34:09.207Z,7.40
2022-09-23T23:37:11.877Z,5.53
2022-09-23T23:40:14.436Z,14.30
2022-09-23T23:43:17.212Z,10.40
2022-09-23T23:46:21.479Z,8.95
2022-09-23T23:49:24.107Z,10.40
2022-09-23T23:52:26.748Z,11.03
2022-09-23T23:55:29.421Z,10.77
2022-09-23T23:58:32.146Z,9.70
